Time;durP1;ratioP1;P1;durP2;ratioP2;P2;SDS_P1;SDS_P2;PMS_P1;PMS_P2;Temp;Humidity;BMP_temperature;BMP_pressure;BME280_temperature;BME280_humidity;BME280_pressure;Samples;Min_cycle;Max_cycle;Signal;HPM_P1;HPM_P2
2022/09/15 00:00:50;;;;;;;24.90;10.57;;;;;;;12.95;99.75;100686.44;5069951;28;20039;-76
2022/09/15 00:03:17;;;;;;;16.20;11.18;;;;;;;12.98;99.93;100690.78;5053348;28;20024;-76
2022/09/15 00:05:43;;;;;;;17.63;10.93;;;;;;;13.00;99.84;100691.59;5052591;28;20111;-76
2022/09/15 00:08:08;;;;;;;15.45;10.57;;;;;;;13.01;99.98;100680.94;5070059;28;20563;-76
2022/09/15 00:10:34;;;;;;;15.13;10.45;;;;;;;13.03;100.00;100673.78;5069894;28;20115;-76
2022/09/15 00:12:59;;;;;;;18.00;11.02;;;;;;;13.05;100.00;100682.53;5062914;28;20060;-76
2022/09/15 00:15:25;;;;;;;17.98;10.52;;;;;;;13.06;100.00;100681.63;5028016;28;20078;-76
2022/09/15 00:17:51;;;;;;;15.70;10.43;;;;;;;13.09;100.00;100681.53;5064781;28;20033;-76
2022/09/15 00:20:19;;;;;;;20.05;12.10;;;;;;;13.09;100.00;100667.38;5060475;28;20052;-76
2022/09/15 00:22:46;;;;;;;18.20;11.35;;;;;;;13.11;100.00;100670.84;5068739;28;20029;-76
2022/09/15 00:25:12;;;;;;;22.55;11.23;;;;;;;13.13;100.00;100671.66;5060454;28;20119;-75
2022/09/15 00:27:37;;;;;;;16.95;11.30;;;;;;;13.13;100.00;100667.22;5047280;28;20048;-76
2022/09/15 00:30:04;;;;;;;20.83;10.95;;;;;;;13.15;100.00;100671.59;5056920;28;20033;-76
2022/09/15 00:32:30;;;;;;;19.52;11.40;;;;;;;13.13;100.00;100663.69;5057682;28;20040;-76
2022/09/15 00:34:56;;;;;;;18.35;11.25;;;;;;;13.13;100.00;100661.91;5065613;28;20040;-76
2022/09/15 00:37:22;;;;;;;22.35;11.57;;;;;;;13.11;100.00;100661.06;5059618;28;20072;-75
2022/09/15 00:39:47;;;;;;;16.17;11.07;;;;;;;13.09;100.00;100657.59;5068265;28;20020;-76
2022/09/15 00:42:17;;;;;;;17.55;10.93;;;;;;;13.11;100.00;100662.88;5049699;28;20554;-76
2022/09/15 00:44:47;;;;;;;18.88;11.30;;;;;;;13.13;100.00;100661.03;5066787;28;20028;-76
2022/09/15 00:47:13;;;;;;;17.58;11.43;;;;;;;13.15;100.00;100661.81;5062581;28;20035;-76
2022/09/15 00:49:39;;;;;;;17.27;11.23;;;;;;;13.16;100.00;100674.22;5049695;28;20442;-76
2022/09/15 00:52:07;;;;;;;14.85;10.90;;;;;;;13.16;100.00;100671.56;5060333;28;20048;-76
2022/09/15 00:54:42;;;;;;;19.15;11.50;;;;;;;13.17;100.00;100669.75;5064946;28;20060;-75
2022/09/15 00:57:14;;;;;;;17.85;10.98;;;;;;;13.17;100.00;100672.41;5074891;28;20040;-75
2022/09/15 00:59:41;;;;;;;23.50;11.50;;;;;;;13.19;100.00;100676.75;5073184;28;20050;-75
2022/09/15 01:02:21;;;;;;;17.92;12.65;;;;;;;13.22;100.00;100691.72;5059291;28;20033;-75
2022/09/15 01:04:49;;;;;;;16.95;11.77;;;;;;;13.22;100.00;100686.41;5068465;28;20033;-75
2022/09/15 01:07:21;;;;;;;16.45;11.38;;;;;;;13.22;100.00;100689.94;5068680;28;20029;-75
2022/09/15 01:09:54;;;;;;;21.85;12.07;;;;;;;13.19;100.00;100689.19;5061463;28;20028;-75
2022/09/15 01:12:21;;;;;;;19.35;11.85;;;;;;;13.22;100.00;100683.75;5057591;28;20076;-75
2022/09/15 01:14:46;;;;;;;16.08;11.18;;;;;;;13.23;100.00;100680.16;5043506;28;20118;-75
2022/09/15 01:17:29;;;;;;;17.60;11.63;;;;;;;13.26;100.00;100688.06;5071144;28;20064;-75
2022/09/15 01:20:32;;;;;;;17.33;11.60;;;;;;;13.28;100.00;100679.13;5052637;28;20123;-75
2022/09/15 01:23:20;;;;;;;16.85;11.23;;;;;;;13.28;100.00;100671.16;5073084;28;20035;-76
2022/09/15 01:25:45;;;;;;;15.18;11.10;;;;;;;13.31;100.00;100673.69;5072747;28;20037;-75
2022/09/15 01:28:23;;;;;;;18.42;10.73;;;;;;;13.33;100.00;100671.00;5072778;28;20029;-75
2022/09/15 01:31:28;;;;;;;17.67;10.88;;;;;;;13.37;100.00;100667.28;5074109;28;20028;-76
2022/09/15 01:34:08;;;;;;;15.48;10.55;;;;;;;13.37;100.00;100669.06;5059753;28;20076;-76
2022/09/15 01:36:44;;;;;;;16.10;11.27;;;;;;;13.37;100.00;100667.28;5074230;28;20185;-75
2022/09/15 01:39:16;;;;;;;15.02;10.65;;;;;;;13.37;100.00;100664.63;5072545;28;20028;-75
2022/09/15 01:41:48;;;;;;;25.67;11.45;;;;;;;13.37;100.00;100666.41;5073881;28;20090;-76
2022/09/15 01:44:23;;;;;;;19.40;10.93;;;;;;;13.37;100.00;100666.41;5072299;28;20033;-76
2022/09/15 01:46:53;;;;;;;16.00;10.05;;;;;;;13.34;100.00;100670.06;5058909;28;20037;-75
2022/09/15 01:49:25;;;;;;;17.65;10.80;;;;;;;13.34;100.00;100664.72;5073552;28;20561;-75
2022/09/15 01:51:53;;;;;;;21.40;11.38;;;;;;;13.33;100.00;100671.84;5072657;28;20127;-75
2022/09/15 01:54:27;;;;;;;15.60;10.68;;;;;;;13.33;100.00;100665.66;5072056;28;20403;-75
2022/09/15 01:56:53;;;;;;;18.92;10.23;;;;;;;13.32;100.00;100670.09;5055613;28;20047;-75
2022/09/15 01:59:19;;;;;;;21.73;11.73;;;;;;;13.32;100.00;100669.22;5055457;28;20115;-75
2022/09/15 02:01:57;;;;;;;13.85;10.48;;;;;;;13.30;100.00;100661.31;5072000;28;20437;-75
2022/09/15 02:04:56;;;;;;;17.00;10.10;;;;;;;13.29;100.00;100662.22;5051954;28;20067;-75
2022/09/15 02:07:46;;;;;;;16.65;11.27;;;;;;;13.28;100.00;100662.31;5066269;28;20118;-75
2022/09/15 02:10:28;;;;;;;16.07;10.17;;;;;;;13.27;100.00;100663.22;5063931;28;20535;-75
2022/09/15 02:13:15;;;;;;;13.07;9.90;;;;;;;13.26;100.00;100670.28;5073121;28;20680;-75
2022/09/15 02:15:52;;;;;;;18.23;10.45;;;;;;;13.22;99.79;100670.47;5069420;28;20111;-75
2022/09/15 02:18:33;;;;;;;15.05;10.90;;;;;;;13.20;99.80;100665.19;5073271;28;20029;-75
2022/09/15 02:21:32;;;;;;;16.67;10.25;;;;;;;13.17;99.99;100667.09;5071648;28;20029;-75
2022/09/15 02:24:05;;;;;;;17.40;10.48;;;;;;;13.15;99.35;100668.94;5069863;28;20451;-75
2022/09/15 02:26:34;;;;;;;13.73;10.18;;;;;;;13.12;99.59;100668.09;5073278;28;20500;-75
2022/09/15 02:29:07;;;;;;;15.32;9.70;;;;;;;13.07;98.97;100670.06;5051636;28;20040;-75
2022/09/15 02:31:38;;;;;;;16.83;9.60;;;;;;;13.04;98.07;100677.28;5072716;28;20036;-75
2022/09/15 02:34:09;;;;;;;16.73;10.00;;;;;;;13.01;98.33;100666.78;5068644;28;20079;-75
2022/09/15 02:36:35;;;;;;;15.02;10.02;;;;;;;13.00;98.48;100670.34;5052599;28;20040;-76
2022/09/15 02:39:08;;;;;;;13.32;8.85;;;;;;;12.95;98.06;100667.84;5051566;28;20029;-76
2022/09/15 02:41:36;;;;;;;13.30;9.65;;;;;;;12.91;99.15;100666.22;5065616;28;20063;-76
2022/09/15 02:44:02;;;;;;;16.58;10.05;;;;;;;12.89;99.20;100668.91;5062803;28;20082;-76
2022/09/15 02:46:29;;;;;;;20.95;11.15;;;;;;;12.84;99.38;100670.00;5058768;28;20112;-76
2022/09/15 02:48:55;;;;;;;16.23;10.18;;;;;;;12.82;99.46;100672.69;5071145;28;20048;-76
2022/09/15 02:51:21;;;;;;;13.65;10.45;;;;;;;12.79;99.96;100670.16;5062634;28;20102;-75
2022/09/15 02:53:47;;;;;;;18.67;11.68;;;;;;;12.78;99.77;100671.06;5071090;28;20036;-75
2022/09/15 02:56:14;;;;;;;14.93;10.25;;;;;;;12.76;99.58;100670.28;5068074;28;20530;-75
2022/09/15 02:58:39;;;;;;;17.92;9.90;;;;;;;12.75;99.50;100657.88;5058094;28;20033;-75
2022/09/15 03:01:06;;;;;;;15.20;10.30;;;;;;;12.75;99.32;100663.19;5057194;28;20044;-75
2022/09/15 03:03:33;;;;;;;17.08;10.45;;;;;;;12.75;99.40;100668.50;5060546;28;20078;-75
2022/09/15 03:06:15;;;;;;;14.55;10.52;;;;;;;12.74;99.53;100668.59;5058248;28;20021;-75
2022/09/15 03:08:52;;;;;;;18.55;9.73;;;;;;;12.75;99.89;100660.53;5072279;28;20041;-75
2022/09/15 03:11:19;;;;;;;19.58;11.77;;;;;;;12.76;100.00;100664.94;5070636;28;20466;-75
2022/09/15 03:13:46;;;;;;;16.45;10.23;;;;;;;12.77;100.00;100677.31;5052926;28;20087;-75
2022/09/15 03:16:14;;;;;;;16.13;9.70;;;;;;;12.77;100.00;100674.66;5066870;28;20124;-75
2022/09/15 03:18:41;;;;;;;17.55;10.45;;;;;;;12.76;100.00;100678.25;5055008;28;20385;-75
2022/09/15 03:21:09;;;;;;;19.52;10.85;;;;;;;12.76;100.00;100683.56;5064865;28;20075;-75
2022/09/15 03:23:35;;;;;;;17.27;11.05;;;;;;;12.78;100.00;100688.78;5060505;28;20116;-75
2022/09/15 03:26:01;;;;;;;20.50;10.52;;;;;;;12.79;100.00;100691.41;5071542;28;20516;-75
2022/09/15 03:28:27;;;;;;;20.02;10.52;;;;;;;12.81;100.00;100691.34;5058076;28;20032;-75
2022/09/15 03:30:53;;;;;;;15.02;10.50;;;;;;;12.84;100.00;100702.75;5071629;28;20116;-75
2022/09/15 03:33:19;;;;;;;15.25;10.57;;;;;;;12.85;100.00;100703.63;5069162;28;20052;-75
2022/09/15 03:35:46;;;;;;;17.40;10.32;;;;;;;12.88;100.00;100707.06;5060622;28;20423;-75
2022/09/15 03:38:13;;;;;;;14.30;10.40;;;;;;;12.91;100.00;100706.09;5051485;28;20388;-75
2022/09/15 03:40:39;;;;;;;17.60;10.27;;;;;;;12.93;100.00;100708.69;5059058;28;20146;-75
2022/09/15 03:43:04;;;;;;;18.15;10.27;;;;;;;12.94;100.00;100713.94;5053853;28;20481;-75
2022/09/15 03:45:29;;;;;;;18.23;10.93;;;;;;;12.94;100.00;100711.28;5063559;28;20086;-75
2022/09/15 03:47:55;;;;;;;19.52;11.38;;;;;;;12.95;100.00;100717.47;5064385;28;20517;-75
2022/09/15 03:50:20;;;;;;;15.38;11.13;;;;;;;12.94;100.00;100718.41;5066843;28;20143;-75
2022/09/15 03:52:46;;;;;;;20.83;11.25;;;;;;;12.95;100.00;100722.78;5052939;28;20033;-75
2022/09/15 03:55:11;;;;;;;16.35;10.77;;;;;;;12.98;100.00;100720.00;5065346;28;21077;-75
2022/09/15 03:57:37;;;;;;;17.40;11.32;;;;;;;12.98;100.00;100715.59;5060215;28;20091;-75
2022/09/15 04:00:06;;;;;;;13.13;10.02;;;;;;;12.98;100.00;100718.25;5057681;28;20131;-75
2022/09/15 04:02:32;;;;;;;15.95;10.70;;;;;;;12.98;100.00;100706.72;5065627;28;20084;-75
2022/09/15 04:04:58;;;;;;;21.65;10.27;;;;;;;12.98;100.00;100704.06;5061700;28;20048;-75
2022/09/15 04:07:24;;;;;;;19.35;11.25;;;;;;;12.99;100.00;100700.50;5039593;28;20052;-75
2022/09/15 04:09:50;;;;;;;16.67;10.77;;;;;;;12.97;100.00;100700.53;5069732;28;20031;-75
2022/09/15 04:12:16;;;;;;;19.15;11.18;;;;;;;12.99;100.00;100705.81;5069881;28;20060;-75
2022/09/15 04:14:42;;;;;;;16.17;10.15;;;;;;;13.00;100.00;100703.09;5070932;28;20044;-75
2022/09/15 04:17:09;;;;;;;16.33;10.20;;;;;;;12.99;100.00;100698.72;5068464;28;20098;-75
2022/09/15 04:19:35;;;;;;;15.90;10.13;;;;;;;13.00;100.00;100699.56;5055856;28;20041;-75
2022/09/15 04:22:00;;;;;;;16.88;11.02;;;;;;;13.01;100.00;100698.66;5061401;28;20044;-76
2022/09/15 04:24:26;;;;;;;15.30;11.02;;;;;;;13.01;100.00;100702.19;5068937;28;20376;-75
2022/09/15 04:26:51;;;;;;;15.82;10.23;;;;;;;13.01;100.00;100691.56;5070083;28;20040;-75
2022/09/15 04:29:18;;;;;;;16.50;10.77;;;;;;;12.99;100.00;100693.41;5067562;28;20048;-75
2022/09/15 04:31:44;;;;;;;13.70;9.50;;;;;;;13.01;100.00;100704.00;5059520;28;20041;-76
2022/09/15 04:34:10;;;;;;;16.02;10.02;;;;;;;13.01;100.00;100699.53;5061305;28;20051;-76
2022/09/15 04:36:36;;;;;;;13.82;10.60;;;;;;;13.02;100.00;100703.91;5065039;28;20473;-76
2022/09/15 04:39:01;;;;;;;15.90;10.57;;;;;;;13.02;100.00;100695.09;5063348;28;20047;-75
2022/09/15 04:41:27;;;;;;;13.68;10.45;;;;;;;13.01;100.00;100701.34;5056866;28;20494;-75
2022/09/15 04:43:52;;;;;;;17.70;10.75;;;;;;;12.99;100.00;100693.41;5069436;28;20051;-75
2022/09/15 04:46:18;;;;;;;23.33;11.20;;;;;;;13.01;100.00;100696.00;5068952;28;20479;-75
2022/09/15 04:48:45;;;;;;;19.85;11.13;;;;;;;13.00;100.00;100699.56;5037654;28;20540;-76
2022/09/15 04:51:13;;;;;;;17.92;10.23;;;;;;;12.99;100.00;100706.69;5049641;28;20483;-75
2022/09/15 04:53:39;;;;;;;16.05;10.45;;;;;;;12.97;100.00;100700.53;5050729;28;20025;-75
2022/09/15 04:56:07;;;;;;;14.23;9.80;;;;;;;12.95;100.00;100701.53;5063690;28;20029;-75
2022/09/15 04:58:40;;;;;;;16.85;10.50;;;;;;;12.95;100.00;100707.69;5070709;28;20115;-75
2022/09/15 05:01:08;;;;;;;15.38;10.68;;;;;;;12.91;100.00;100695.47;5062929;28;20127;-75
2022/09/15 05:03:35;;;;;;;14.85;10.40;;;;;;;12.88;100.00;100699.09;5065023;28;20040;-75
2022/09/15 05:06:01;;;;;;;12.68;9.57;;;;;;;12.87;100.00;100700.00;5060473;28;20028;-75
2022/09/15 05:08:26;;;;;;;13.30;10.60;;;;;;;12.85;100.00;100688.53;5049311;28;20033;-76
2022/09/15 05:10:52;;;;;;;17.55;10.45;;;;;;;12.83;100.00;100698.38;5069003;28;20037;-75
2022/09/15 05:13:17;;;;;;;17.25;10.50;;;;;;;12.82;100.00;100699.28;5052529;28;20055;-75
2022/09/15 05:15:43;;;;;;;16.35;10.40;;;;;;;12.82;100.00;100698.41;5066895;28;20106;-75
2022/09/15 05:18:08;;;;;;;16.67;10.18;;;;;;;12.79;100.00;100695.88;5059134;28;20108;-76
2022/09/15 05:20:34;;;;;;;15.23;10.35;;;;;;;12.79;100.00;100694.06;5030117;28;20409;-76
2022/09/15 05:22:59;;;;;;;14.98;9.77;;;;;;;12.78;100.00;100702.09;5058798;28;20043;-75
2022/09/15 05:25:25;;;;;;;15.93;10.15;;;;;;;12.80;100.00;100708.22;5056994;28;20037;-75
2022/09/15 05:27:50;;;;;;;13.20;10.88;;;;;;;12.80;100.00;100706.44;5068946;28;20574;-75
2022/09/15 05:30:16;;;;;;;14.40;9.93;;;;;;;12.80;100.00;100701.13;5070406;28;20036;-78
2022/09/15 05:32:42;;;;;;;16.27;10.15;;;;;;;12.82;100.00;100701.06;5055331;28;20110;-78
2022/09/15 05:35:07;;;;;;;15.98;10.60;;;;;;;12.82;100.00;100709.03;5070223;28;20429;-78
2022/09/15 05:37:32;;;;;;;18.88;10.80;;;;;;;12.80;100.00;100705.56;5025579;28;20087;-78
2022/09/15 05:39:58;;;;;;;16.20;10.80;;;;;;;12.80;100.00;100708.22;5070898;28;20036;-78
2022/09/15 05:42:24;;;;;;;15.13;10.35;;;;;;;12.81;100.00;100723.22;5074269;28;20041;-78
2022/09/15 05:44:50;;;;;;;19.38;10.93;;;;;;;12.82;100.00;100715.22;5071931;28;20052;-78
2022/09/15 05:47:15;;;;;;;22.52;11.15;;;;;;;12.85;100.00;100728.41;5055924;28;20071;-78
2022/09/15 05:49:41;;;;;;;11.88;9.85;;;;;;;12.88;100.00;100720.34;5073385;28;20090;-78
2022/09/15 05:52:06;;;;;;;15.85;10.55;;;;;;;12.91;100.00;100724.69;5072657;28;20449;-78
2022/09/15 05:54:32;;;;;;;13.13;9.98;;;;;;;12.95;100.00;100728.09;5061525;28;20029;-78
2022/09/15 05:56:57;;;;;;;16.42;10.38;;;;;;;12.96;100.00;100729.81;5070793;28;20033;-78
2022/09/15 05:59:22;;;;;;;16.20;10.70;;;;;;;12.98;100.00;100731.53;5055255;28;20130;-78
2022/09/15 06:01:48;;;;;;;12.98;9.90;;;;;;;13.02;100.00;100733.16;5055746;28;20070;-78
2022/09/15 06:04:13;;;;;;;19.08;10.65;;;;;;;13.03;100.00;100734.91;5052036;28;20064;-78
2022/09/15 06:06:39;;;;;;;17.67;10.77;;;;;;;13.06;100.00;100748.09;5065522;28;20043;-78
2022/09/15 06:09:05;;;;;;;15.27;9.77;;;;;;;13.09;100.00;100737.34;5054191;28;20020;-78
2022/09/15 06:11:33;;;;;;;16.73;10.43;;;;;;;13.11;100.00;100745.28;5053842;28;20067;-78
2022/09/15 06:14:01;;;;;;;15.43;9.93;;;;;;;13.15;100.00;100744.25;5068901;28;20131;-78
2022/09/15 06:16:31;;;;;;;17.40;11.02;;;;;;;13.16;100.00;100745.13;5061622;28;20465;-78
2022/09/15 06:18:57;;;;;;;14.90;9.73;;;;;;;13.18;100.00;100740.59;5052767;28;20108;-78
2022/09/15 06:21:26;;;;;;;15.05;10.07;;;;;;;13.18;100.00;100740.59;5055136;28;20078;-78
2022/09/15 06:23:59;;;;;;;15.73;10.32;;;;;;;13.20;100.00;100741.44;5066480;28;20074;-78
2022/09/15 06:26:26;;;;;;;16.98;10.05;;;;;;;13.20;100.00;100741.44;5071718;28;20479;-78
2022/09/15 06:28:57;;;;;;;16.65;9.90;;;;;;;13.22;100.00;100743.13;5065387;28;20048;-78
2022/09/15 06:31:24;;;;;;;12.50;9.07;;;;;;;13.26;100.00;100758.06;5058955;28;20629;-78
2022/09/15 06:33:51;;;;;;;17.83;10.10;;;;;;;13.29;100.00;100760.63;5065328;28;20032;-78
2022/09/15 06:36:19;;;;;;;18.45;10.32;;;;;;;13.33;100.00;100770.25;5070736;28;20036;-78
2022/09/15 06:38:45;;;;;;;14.85;9.48;;;;;;;13.38;100.00;100766.53;5062847;28;20388;-78
2022/09/15 06:41:12;;;;;;;14.50;8.95;;;;;;;13.43;100.00;100770.81;5051632;28;20035;-78
2022/09/15 06:43:38;;;;;;;14.07;8.50;;;;;;;13.50;100.00;100775.00;5059393;28;20324;-78
2022/09/15 06:46:08;;;;;;;17.40;9.23;;;;;;;13.55;100.00;100782.81;5071397;28;20099;-78
2022/09/15 06:48:35;;;;;;;15.68;9.27;;;;;;;13.61;100.00;100779.06;5054537;28;20041;-78
2022/09/15 06:51:02;;;;;;;13.85;8.57;;;;;;;13.65;100.00;100778.91;5058521;28;20052;-78
2022/09/15 06:53:32;;;;;;;16.23;8.98;;;;;;;13.71;100.00;100777.81;5069757;28;20106;-78
2022/09/15 06:56:06;;;;;;;17.13;8.88;;;;;;;13.79;100.00;100783.72;5043564;28;20044;-78
2022/09/15 06:58:34;;;;;;;35.40;8.75;;;;;;;13.84;100.00;100784.41;5070890;28;20135;-78
2022/09/15 07:01:04;;;;;;;15.40;8.82;;;;;;;13.92;100.00;100795.69;5065167;28;20085;-78
2022/09/15 07:03:30;;;;;;;16.40;8.90;;;;;;;13.96;99.70;100791.97;5052428;28;20028;-77
2022/09/15 07:05:56;;;;;;;19.65;8.98;;;;;;;13.96;99.95;100786.63;5057752;28;20444;-78
2022/09/15 07:08:21;;;;;;;16.17;8.98;;;;;;;14.04;100.00;100797.00;5072237;28;20060;-77
2022/09/15 07:10:47;;;;;;;14.43;8.68;;;;;;;14.08;99.87;100798.63;5057925;28;20348;-77
2022/09/15 07:13:12;;;;;;;12.95;7.72;;;;;;;14.16;100.00;100803.66;5071941;28;20044;-78
2022/09/15 07:15:38;;;;;;;13.10;8.10;;;;;;;14.22;100.00;100795.47;5068440;28;20064;-77
2022/09/15 07:18:05;;;;;;;11.98;8.05;;;;;;;14.25;99.34;100797.16;5068272;28;20041;-77
2022/09/15 07:20:31;;;;;;;15.57;7.43;;;;;;;14.25;98.22;100797.16;5071745;28;20051;-78
2022/09/15 07:22:57;;;;;;;18.65;8.50;;;;;;;14.24;98.48;100795.38;5058091;28;20433;-78
2022/09/15 07:25:22;;;;;;;16.73;8.55;;;;;;;14.25;98.72;100802.47;5070439;28;20118;-75
2022/09/15 07:27:48;;;;;;;19.75;8.60;;;;;;;14.31;99.45;100804.88;5050714;28;20107;-75
2022/09/15 07:30:13;;;;;;;14.32;7.90;;;;;;;14.38;99.64;100806.38;5051632;28;20052;-75
2022/09/15 07:32:39;;;;;;;13.32;7.85;;;;;;;14.43;99.13;100812.41;5056784;28;20152;-75
2022/09/15 07:35:06;;;;;;;11.77;7.20;;;;;;;14.49;98.85;100816.63;5059117;28;20040;-75
2022/09/15 07:37:32;;;;;;;9.57;6.70;;;;;;;14.54;98.05;100814.69;5068876;28;20036;-75
2022/09/15 07:39:58;;;;;;;13.40;6.68;;;;;;;14.61;98.77;100816.19;5062376;28;20041;-76
2022/09/15 07:42:24;;;;;;;15.55;6.65;;;;;;;14.66;96.76;100819.53;5058202;28;20511;-75
2022/09/15 07:44:50;;;;;;;12.50;6.35;;;;;;;14.71;97.44;100819.38;5064035;28;20027;-75
2022/09/15 07:47:16;;;;;;;12.68;6.45;;;;;;;14.75;97.32;100821.84;5051676;28;20124;-75
2022/09/15 07:49:42;;;;;;;15.93;6.95;;;;;;;14.78;97.02;100824.38;5065189;28;20045;-75
2022/09/15 07:52:08;;;;;;;10.98;6.63;;;;;;;14.80;96.86;100827.88;5053616;28;20155;-76
2022/09/15 07:54:34;;;;;;;16.10;6.18;;;;;;;14.82;96.36;100833.16;5050308;28;20027;-76
2022/09/15 07:57:00;;;;;;;11.77;6.68;;;;;;;14.82;96.20;100828.69;5070341;28;20032;-76
2022/09/15 07:59:25;;;;;;;12.85;7.15;;;;;;;14.84;95.78;100831.31;5061086;28;20361;-76
2022/09/15 08:01:51;;;;;;;16.98;6.55;;;;;;;14.83;95.80;100834.88;5064435;28;20472;-76
2022/09/15 08:04:16;;;;;;;14.10;5.95;;;;;;;14.89;96.60;100831.97;5069734;28;20111;-76
2022/09/15 08:06:42;;;;;;;11.70;6.60;;;;;;;14.96;96.37;100828.13;5036781;28;20043;-76
2022/09/15 08:09:13;;;;;;;11.55;5.85;;;;;;;15.05;96.50;100832.22;5065459;28;20033;-76
2022/09/15 08:11:39;;;;;;;11.80;6.72;;;;;;;15.12;95.97;100838.19;5060765;28;20036;-76
2022/09/15 08:14:04;;;;;;;15.15;6.55;;;;;;;15.15;93.93;100835.38;5070879;28;20387;-76
2022/09/15 08:16:30;;;;;;;16.67;6.30;;;;;;;15.18;94.08;100841.47;5058949;28;20048;-76
2022/09/15 08:18:55;;;;;;;12.27;6.25;;;;;;;15.22;94.96;100840.41;5068305;28;20044;-76
2022/09/15 08:21:22;;;;;;;8.88;5.57;;;;;;;15.24;94.22;100841.22;5064624;28;20055;-76
2022/09/15 08:23:54;;;;;;;14.07;5.57;;;;;;;15.23;91.93;100839.50;5062294;28;20032;-76
2022/09/15 08:26:20;;;;;;;13.30;5.43;;;;;;;15.26;93.87;100841.16;5065548;28;20041;-76
2022/09/15 08:28:47;;;;;;;11.63;5.18;;;;;;;15.27;94.51;100848.22;5061426;28;20053;-76
2022/09/15 08:31:13;;;;;;;10.32;5.53;;;;;;;15.30;92.66;100850.75;5071075;28;20060;-77
2022/09/15 08:33:39;;;;;;;8.85;5.45;;;;;;;15.29;91.95;100851.69;5065764;28;20040;-77
2022/09/15 08:36:10;;;;;;;10.70;5.57;;;;;;;15.33;93.48;100852.44;5036449;28;20471;-77
2022/09/15 08:38:39;;;;;;;11.40;5.72;;;;;;;15.38;92.92;100851.31;5060939;28;20044;-77
2022/09/15 08:41:12;;;;;;;9.48;4.93;;;;;;;15.41;90.76;100848.53;5066148;28;20460;-77
2022/09/15 08:43:44;;;;;;;10.80;6.00;;;;;;;15.44;91.19;100858.19;5070956;28;20041;-77
2022/09/15 08:46:16;;;;;;;8.27;5.20;;;;;;;15.46;91.31;100857.19;5055637;28;20033;-77
2022/09/15 08:48:51;;;;;;;12.30;5.70;;;;;;;15.54;91.45;100872.03;5069746;28;20055;-77
2022/09/15 08:51:30;;;;;;;18.60;6.28;;;;;;;15.57;91.10;100867.41;5055248;28;20033;-77
2022/09/15 08:54:04;;;;;;;14.93;5.85;;;;;;;15.64;89.88;100868.91;5069371;28;20049;-77
2022/09/15 08:56:29;;;;;;;12.30;5.55;;;;;;;15.73;90.44;100878.34;5070893;28;20120;-77
2022/09/15 08:58:55;;;;;;;12.18;5.80;;;;;;;15.77;90.02;100881.75;5065390;28;20115;-77
2022/09/15 09:01:33;;;;;;;14.68;5.78;;;;;;;15.78;89.46;100876.34;5069472;28;20041;-77
2022/09/15 09:04:17;;;;;;;9.73;5.50;;;;;;;15.76;89.49;100888.03;5053785;28;20024;-77
2022/09/15 09:07:11;;;;;;;11.07;4.95;;;;;;;15.68;87.81;100886.53;5063081;28;20048;-77
2022/09/15 09:10:16;;;;;;;11.05;4.53;;;;;;;15.64;87.28;100889.38;5060969;28;20032;-77
2022/09/15 09:12:51;;;;;;;13.27;5.05;;;;;;;15.64;88.35;100887.56;5072223;28;20060;-77
2022/09/15 09:15:25;;;;;;;9.50;4.88;;;;;;;15.66;87.32;100893.72;5064522;28;20124;-77
2022/09/15 09:18:19;;;;;;;10.45;4.20;;;;;;;15.71;88.65;100896.25;5058897;28;20123;-77
2022/09/15 09:20:44;;;;;;;15.40;4.93;;;;;;;15.71;86.52;100898.91;5072674;28;20047;-77
2022/09/15 09:23:16;;;;;;;12.38;4.70;;;;;;;15.68;86.21;100893.69;5065569;28;20024;-77
2022/09/15 09:25:43;;;;;;;16.15;4.65;;;;;;;15.68;86.79;100905.22;5067350;28;20121;-77
2022/09/15 09:28:26;;;;;;;11.25;4.60;;;;;;;15.69;87.55;100898.97;5066592;28;20084;-77
2022/09/15 09:30:53;;;;;;;13.02;4.63;;;;;;;15.64;86.04;100897.41;5067791;28;20033;-77
2022/09/15 09:33:29;;;;;;;8.25;3.78;;;;;;;15.63;85.99;100909.03;5070469;28;20028;-77
2022/09/15 09:35:58;;;;;;;12.93;4.40;;;;;;;15.61;86.15;100905.53;5067113;28;20431;-77
2022/09/15 09:38:39;;;;;;;10.10;4.20;;;;;;;15.61;86.63;100909.06;5074134;28;20036;-77
2022/09/15 09:41:11;;;;;;;12.40;4.60;;;;;;;15.59;87.33;100907.41;5060064;28;20035;-77
2022/09/15 09:43:37;;;;;;;7.78;3.80;;;;;;;15.55;87.26;100906.63;5072519;28;20094;-77
2022/09/15 09:46:12;;;;;;;12.27;3.95;;;;;;;15.52;87.92;100911.25;5043521;28;20037;-75
2022/09/15 09:48:39;;;;;;;12.32;4.70;;;;;;;15.48;88.36;100916.72;5039928;28;20051;-74
2022/09/15 09:51:35;;;;;;;13.77;3.97;;;;;;;15.48;88.78;100911.38;5067254;28;20048;-73
2022/09/15 09:54:24;;;;;;;9.68;2.70;;;;;;;15.41;85.67;100920.56;5052264;28;20044;-73
2022/09/15 09:56:51;;;;;;;9.95;2.75;;;;;;;15.33;85.91;100921.78;5053779;28;20273;-73
2022/09/15 09:59:46;;;;;;;12.32;2.55;;;;;;;15.37;87.38;100918.09;5057200;28;20082;-73
2022/09/15 10:02:14;;;;;;;7.75;2.22;;;;;;;15.40;87.91;100918.81;5070776;28;20036;-74
2022/09/15 10:04:45;;;;;;;10.18;2.35;;;;;;;15.44;86.20;100909.75;5073213;28;20097;-74
2022/09/15 10:07:12;;;;;;;;;;;;;;;15.57;87.30;100907.44;5074020;28;20048;-74
2022/09/15 10:09:38;;;;;;;14.07;2.80;;;;;;;15.62;86.79;100905.44;5073193;28;20010;-73
2022/09/15 10:12:05;;;;;;;8.52;3.03;;;;;;;15.73;87.91;100906.88;5073093;28;20136;-74
2022/09/15 10:14:34;;;;;;;5.38;2.92;;;;;;;15.86;89.21;100900.06;5066481;28;20040;-74
2022/09/15 10:17:35;;;;;;;8.05;3.05;;;;;;;15.99;89.49;100900.38;5049277;28;20124;-74
2022/09/15 10:20:04;;;;;;;11.07;3.70;;;;;;;16.05;87.89;100909.03;5061888;28;20080;-74
2022/09/15 10:22:34;;;;;;;11.75;4.10;;;;;;;16.04;88.16;100904.59;5058070;28;20090;-74
2022/09/15 10:25:21;;;;;;;13.55;4.60;;;;;;;16.05;88.26;100901.00;5072948;28;20177;-74
2022/09/15 10:28:08;;;;;;;16.50;4.55;;;;;;;16.10;88.43;100907.00;5071597;28;20039;-74
2022/09/15 10:30:35;;;;;;;12.18;3.80;;;;;;;16.10;86.90;100909.69;5071460;28;20046;-74
2022/09/15 10:33:21;;;;;;;8.23;2.70;;;;;;;16.05;86.11;100905.47;5071323;28;20402;-75
2022/09/15 10:35:47;;;;;;;11.32;3.50;;;;;;;15.97;86.77;100927.16;5072997;28;20032;-75
2022/09/15 10:38:18;;;;;;;7.18;1.70;;;;;;;15.79;81.14;100934.16;5058540;28;20056;-75
2022/09/15 10:41:22;;;;;;;7.53;2.05;;;;;;;15.64;81.57;100927.63;5072709;28;20044;-73
2022/09/15 10:44:21;;;;;;;7.22;2.10;;;;;;;15.53;81.94;100934.31;5061915;28;20036;-73
2022/09/15 10:47:18;;;;;;;7.55;1.70;;;;;;;15.29;80.75;100931.72;5052895;28;20124;-73
2022/09/15 10:49:55;;;;;;;11.95;1.70;;;;;;;15.08;81.53;100930.78;5052925;28;20517;-73
2022/09/15 10:52:38;;;;;;;10.07;1.60;;;;;;;15.03;82.19;100922.97;5072349;28;20529;-73
2022/09/15 10:55:25;;;;;;;4.55;1.50;;;;;;;14.98;82.28;100919.59;5070747;28;20107;-74
2022/09/15 10:57:53;;;;;;;5.07;1.48;;;;;;;14.93;82.53;100912.72;5072400;28;20376;-74
2022/09/15 11:00:23;;;;;;;10.88;1.73;;;;;;;14.94;82.81;100919.78;5052622;28;20032;-74
2022/09/15 11:02:48;;;;;;;6.93;1.42;;;;;;;15.03;83.92;100919.41;5059230;28;20060;-74
2022/09/15 11:05:30;;;;;;;5.45;1.30;;;;;;;15.10;84.29;100928.91;5067405;28;20067;-74
2022/09/15 11:08:32;;;;;;;2.88;1.45;;;;;;;15.19;86.05;100922.38;5060676;28;20079;-74
2022/09/15 11:11:23;;;;;;;6.05;2.03;;;;;;;15.27;85.75;100922.91;5056697;28;20124;-74
2022/09/15 11:14:16;;;;;;;5.47;1.67;;;;;;;15.38;84.43;100915.38;5057526;28;20049;-74
2022/09/15 11:17:05;;;;;;;4.32;1.42;;;;;;;15.48;84.07;100907.84;5058716;28;20647;-75
2022/09/15 11:20:05;;;;;;;5.80;1.33;;;;;;;15.72;83.44;100899.78;5070469;28;20387;-74
2022/09/15 11:22:41;;;;;;;5.68;1.17;;;;;;;16.09;81.85;100910.59;5058616;28;20067;-75
2022/09/15 11:25:09;;;;;;;5.20;1.27;;;;;;;16.49;81.66;100906.19;5071692;28;20116;-74